Time;durP1;ratioP1;P1;durP2;ratioP2;P2;SDS_P1;SDS_P2;PMS_P1;PMS_P2;Temp;Humidity;BMP_temperature;BMP_pressure;BME280_temperature;BME280_humidity;BME280_pressure;Samples;Min_cycle;Max_cycle;Signal;HPM_P1;HPM_P2
2023/08/25 00:00:31;;;;;;;;;;;19.60;99.90;;;;;;5004815;28;20375;-71
2023/08/25 00:02:56;;;;;;;;;;;19.60;99.90;;;;;;5003097;28;25098;-66
2023/08/25 00:05:22;;;;;;;;;;;19.50;99.90;;;;;;5004674;28;20142;-71
2023/08/25 00:07:48;;;;;;;;;;;19.50;99.90;;;;;;5003470;28;20265;-69
2023/08/25 00:10:13;;;;;;;;;;;19.50;99.90;;;;;;5004353;28;19925;-64
2023/08/25 00:12:39;;;;;;;;;;;19.40;99.90;;;;;;5003233;28;19958;-69
2023/08/25 00:15:05;;;;;;;;;;;19.40;99.90;;;;;;5004194;28;20252;-65
2023/08/25 00:17:31;;;;;;;;;;;19.40;99.90;;;;;;5003715;28;19936;-67
2023/08/25 00:19:56;;;;;;;;;;;19.40;99.90;;;;;;5003852;28;20247;-60
2023/08/25 00:22:22;;;;;;;;;;;19.40;99.90;;;;;;5004224;28;19929;-67
2023/08/25 00:24:47;;;;;;;;;;;19.30;99.90;;;;;;5004447;28;20111;-67
2023/08/25 00:27:13;;;;;;;;;;;19.30;99.90;;;;;;5004665;28;20051;-68
2023/08/25 00:29:38;;;;;;;;;;;19.30;99.90;;;;;;5004033;28;20120;-70
2023/08/25 00:32:04;;;;;;;;;;;19.30;99.90;;;;;;5004265;28;25092;-66
2023/08/25 00:34:29;;;;;;;;;;;19.30;99.90;;;;;;5003269;28;20558;-64
2023/08/25 00:36:55;;;;;;;;;;;19.20;99.90;;;;;;5003661;28;20067;-69
2023/08/25 00:39:20;;;;;;;;;;;19.30;99.90;;;;;;5003187;28;20078;-66
2023/08/25 00:41:46;;;;;;;;;;;19.30;99.90;;;;;;5004497;28;20040;-66
2023/08/25 00:44:11;;;;;;;;;;;19.20;99.90;;;;;;5003944;28;20051;-69
2023/08/25 00:46:37;;;;;;;;;;;19.30;99.90;;;;;;5003644;28;20247;-62
2023/08/25 00:49:03;;;;;;;;;;;19.30;99.90;;;;;;5003670;28;20391;-68
2023/08/25 00:51:29;;;;;;;;;;;19.30;99.90;;;;;;5004965;28;19925;-67
2023/08/25 00:53:55;;;;;;;;;;;19.40;99.90;;;;;;5003834;28;19940;-62
2023/08/25 00:56:21;;;;;;;;;;;19.40;99.90;;;;;;5009690;28;20091;-63
2023/08/25 00:58:46;;;;;;;;;;;19.40;99.90;;;;;;5008332;28;20333;-61
2023/08/25 01:01:13;;;;;;;;;;;19.40;99.90;;;;;;5002042;28;24111;-62
2023/08/25 01:03:39;;;;;;;;;;;19.40;99.90;;;;;;5002846;28;20086;-59
2023/08/25 01:06:05;;;;;;;;;;;19.40;99.90;;;;;;5003345;28;20544;-63
2023/08/25 01:08:30;;;;;;;;;;;19.40;99.90;;;;;;5001922;28;20158;-59
2023/08/25 01:11:33;;;;;;;;;;;19.40;99.90;;;;;;5004734;28;20346;-64
2023/08/25 01:14:12;;;;;;;;;;;19.40;99.90;;;;;;5001337;28;20251;-63
2023/08/25 01:16:58;;;;;;;;;;;19.50;99.90;;;;;;5003084;28;20143;-60
2023/08/25 01:19:27;;;;;;;;;;;19.50;99.90;;;;;;4961321;28;20254;-69
2023/08/25 01:21:54;;;;;;;;;;;19.50;99.90;;;;;;5003161;28;20070;-66
2023/08/25 01:24:25;;;;;;;1361.82;999.90;;;19.40;99.90;;;;;;5004996;28;20250;-60
2023/08/25 01:26:51;;;;;;;1366.10;999.90;;;19.50;99.90;;;;;;5012157;28;19995;-70
2023/08/25 01:29:16;;;;;;;1369.70;999.90;;;19.50;99.90;;;;;;5008120;28;20037;-62
2023/08/25 01:31:42;;;;;;;1368.50;935.17;;;19.50;99.90;;;;;;5007549;28;20514;-59
2023/08/25 01:34:08;;;;;;;1356.55;940.80;;;19.40;99.90;;;;;;5007318;28;20041;-69
2023/08/25 01:36:42;;;;;;;1365.60;999.90;;;19.40;99.90;;;;;;5005557;28;20080;-62
2023/08/25 01:39:10;;;;;;;;;;;19.50;99.90;;;;;;5008489;28;20042;-57
2023/08/25 01:42:02;;;;;;;1366.25;999.90;;;19.60;99.90;;;;;;5007615;28;19917;-59
2023/08/25 01:44:29;;;;;;;1365.78;999.90;;;19.50;99.90;;;;;;5008240;28;20120;-68
2023/08/25 01:47:00;;;;;;;1327.07;934.90;;;19.60;99.90;;;;;;5008360;28;20393;-63
2023/08/25 01:49:27;;;;;;;1364.90;999.90;;;19.60;99.90;;;;;;5007452;28;20116;-59
2023/08/25 01:51:53;;;;;;;1308.35;953.75;;;19.60;99.90;;;;;;5007389;28;20037;-63
2023/08/25 01:54:19;;;;;;;1314.63;946.33;;;19.60;99.90;;;;;;5007612;28;20049;-67
2023/08/25 01:56:44;;;;;;;1354.93;999.90;;;19.50;99.90;;;;;;5017128;28;20044;-62
2023/08/25 01:59:10;;;;;;;1245.32;927.88;;;19.40;99.90;;;;;;5006686;28;20048;-70
2023/08/25 02:01:36;;;;;;;1357.85;999.90;;;19.50;99.90;;;;;;5007791;28;20046;-66
2023/08/25 02:04:01;;;;;;;1223.63;926.53;;;19.40;99.90;;;;;;5006448;28;20054;-63
2023/08/25 02:06:27;;;;;;;1175.32;910.92;;;19.40;99.90;;;;;;5005150;28;20144;-69
2023/08/25 02:08:53;;;;;;;1329.68;999.90;;;19.40;99.90;;;;;;5006962;28;20129;-60
2023/08/25 02:11:19;;;;;;;1156.28;923.15;;;19.40;99.90;;;;;;5007237;28;20117;-69
2023/08/25 02:13:45;;;;;;;1139.78;914.63;;;19.40;99.90;;;;;;5007113;28;20558;-56
2023/08/25 02:16:10;;;;;;;1270.78;999.90;;;19.30;99.90;;;;;;5006527;28;20046;-66
2023/08/25 02:18:37;;;;;;;1227.32;999.90;;;19.40;99.90;;;;;;5006350;28;20064;-68
2023/08/25 02:21:02;;;;;;;1143.70;907.20;;;19.20;99.90;;;;;;5007335;28;20053;-63
2023/08/25 02:23:28;;;;;;;1237.55;999.90;;;19.30;99.90;;;;;;5006724;28;20405;-69
2023/08/25 02:25:54;;;;;;;1222.90;999.90;;;19.20;99.90;;;;;;5007187;28;20124;-66
2023/08/25 02:28:19;;;;;;;1238.88;999.90;;;19.10;99.90;;;;;;5007301;28;20493;-64
2023/08/25 02:30:45;;;;;;;1052.72;933.50;;;19.10;99.90;;;;;;5005741;28;20054;-69
2023/08/25 02:33:12;;;;;;;1215.32;999.90;;;19.10;99.90;;;;;;5005771;28;20125;-61
2023/08/25 02:35:38;;;;;;;1025.05;917.55;;;19.10;99.90;;;;;;5005584;28;20117;-65
2023/08/25 02:38:05;;;;;;;1224.70;999.90;;;19.10;99.90;;;;;;5004967;28;20876;-68
2023/08/25 02:40:32;;;;;;;1033.60;925.60;;;19.00;99.90;;;;;;5005141;28;20042;-70
2023/08/25 02:43:03;;;;;;;1210.95;999.90;;;19.00;99.90;;;;;;5006134;28;20053;-64
2023/08/25 02:45:29;;;;;;;1214.50;999.90;;;19.10;99.90;;;;;;5005950;28;20497;-69
2023/08/25 02:47:55;;;;;;;1034.85;924.92;;;19.10;99.90;;;;;;5005107;28;20049;-67
2023/08/25 02:50:21;;;;;;;1226.60;999.90;;;19.10;99.90;;;;;;5017062;28;20033;-68
2023/08/25 02:52:47;;;;;;;1024.93;880.13;;;19.20;99.90;;;;;;5025674;28;20431;-69
2023/08/25 02:55:16;;;;;;;1079.35;940.30;;;19.10;99.90;;;;;;5023592;28;20048;-65
2023/08/25 02:57:49;;;;;;;1097.78;938.63;;;19.10;99.90;;;;;;5014368;28;20078;-69
2023/08/25 03:00:25;;;;;;;1043.68;929.75;;;19.10;99.90;;;;;;5005944;28;20044;-67
2023/08/25 03:02:52;;;;;;;1225.53;999.90;;;19.10;99.90;;;;;;5005562;28;20136;-68
2023/08/25 03:05:18;;;;;;;1039.35;929.22;;;19.10;99.90;;;;;;5006371;28;20100;-60
2023/08/25 03:07:44;;;;;;;1217.72;999.90;;;19.10;99.90;;;;;;5005509;28;20416;-69
2023/08/25 03:10:10;;;;;;;1224.50;999.90;;;19.10;99.90;;;;;;5005200;28;20050;-63
2023/08/25 03:12:36;;;;;;;1213.75;999.90;;;19.00;99.90;;;;;;5005683;28;20628;-65
2023/08/25 03:15:02;;;;;;;1223.97;999.90;;;19.00;99.90;;;;;;5005755;28;20113;-68
2023/08/25 03:17:28;;;;;;;1181.80;999.90;;;18.90;99.90;;;;;;5004808;28;20054;-59
2023/08/25 03:19:53;;;;;;;1056.20;943.42;;;19.00;99.90;;;;;;5005566;28;20064;-66
2023/08/25 03:22:19;;;;;;;1184.10;999.90;;;19.00;99.90;;;;;;5005564;28;20096;-64
2023/08/25 03:24:45;;;;;;;1003.88;907.03;;;18.90;99.90;;;;;;5004785;28;20085;-69
2023/08/25 03:27:10;;;;;;;1157.85;999.90;;;18.90;99.90;;;;;;5005763;28;20103;-65
2023/08/25 03:29:36;;;;;;;1195.78;999.90;;;19.00;99.90;;;;;;5005457;28;20042;-68
2023/08/25 03:32:03;;;;;;;1007.08;901.60;;;18.90;99.90;;;;;;5005309;28;20049;-69
2023/08/25 03:34:29;;;;;;;1012.65;917.17;;;19.00;99.90;;;;;;5005449;28;20030;-61
2023/08/25 03:36:55;;;;;;;1004.42;909.90;;;19.00;99.90;;;;;;5005531;28;20616;-70
2023/08/25 03:39:21;;;;;;;1181.72;999.90;;;19.00;99.90;;;;;;5005756;28;20034;-66
2023/08/25 03:41:46;;;;;;;1021.95;927.90;;;19.00;99.90;;;;;;5005867;28;20052;-65
2023/08/25 03:44:12;;;;;;;1057.28;950.20;;;18.90;99.90;;;;;;5006101;28;20053;-64
2023/08/25 03:46:38;;;;;;;1242.50;999.90;;;18.90;99.90;;;;;;5005457;28;20049;-60
2023/08/25 03:49:05;;;;;;;1337.57;999.90;;;18.80;99.90;;;;;;5004340;28;20045;-68
2023/08/25 03:51:30;;;;;;;1372.00;999.90;;;18.80;99.90;;;;;;5005658;28;20045;-59
2023/08/25 03:53:56;;;;;;;1262.88;970.15;;;18.80;99.90;;;;;;5005186;28;20050;-54
2023/08/25 03:56:21;;;;;;;1381.22;990.15;;;18.80;99.90;;;;;;5012604;28;20045;-66
2023/08/25 03:58:47;;;;;;;1387.93;970.20;;;18.80;99.90;;;;;;5007628;28;20038;-60
2023/08/25 04:01:13;;;;;;;1377.55;999.90;;;18.70;99.90;;;;;;5004785;28;20492;-61
2023/08/25 04:03:39;;;;;;;;;;;18.70;99.90;;;;;;5004623;28;20277;-68
2023/08/25 04:06:06;;;;;;;1387.90;999.90;;;18.70;99.90;;;;;;5003635;28;20068;-66
2023/08/25 04:08:31;;;;;;;1379.65;999.90;;;18.80;99.90;;;;;;5005508;28;19921;-66
2023/08/25 04:10:57;;;;;;;1375.05;999.90;;;18.70;99.90;;;;;;5005057;28;19983;-58
2023/08/25 04:13:23;;;;;;;1380.22;980.40;;;18.70;99.90;;;;;;5004962;28;20089;-68
2023/08/25 04:15:58;;;;;;;1383.00;928.33;;;18.70;99.90;;;;;;5004929;28;20046;-62
2023/08/25 04:18:25;;;;;;;1372.30;937.85;;;18.70;99.90;;;;;;5003784;28;20042;-64
2023/08/25 04:20:50;;;;;;;1387.30;999.90;;;18.80;99.90;;;;;;5004880;28;20240;-68
2023/08/25 04:23:16;;;;;;;1376.55;999.90;;;18.80;99.90;;;;;;5004832;28;20080;-68
2023/08/25 04:25:42;;;;;;;1371.15;933.13;;;18.80;99.90;;;;;;5003105;28;20064;-64
2023/08/25 04:28:08;;;;;;;1372.10;999.90;;;18.80;99.90;;;;;;5004718;28;20048;-57
2023/08/25 04:30:34;;;;;;;1383.18;999.90;;;18.80;99.90;;;;;;5004540;28;20096;-66
2023/08/25 04:33:00;;;;;;;1374.90;929.90;;;18.80;99.90;;;;;;5003963;28;20052;-69
2023/08/25 04:35:25;;;;;;;1386.38;980.38;;;18.70;99.90;;;;;;5003180;28;20541;-66
2023/08/25 04:37:51;;;;;;;1378.05;999.90;;;18.80;99.90;;;;;;5004656;28;20053;-60
2023/08/25 04:40:18;;;;;;;1186.80;796.33;;;18.80;99.90;;;;;;5004497;28;20030;-62
2023/08/25 04:42:43;;;;;;;52.92;40.90;;;18.90;99.90;;;;;;5003607;28;20038;-56
2023/08/25 04:45:11;;;;;;;51.10;39.47;;;18.90;99.90;;;;;;5004366;28;20045;-59
2023/08/25 04:47:37;;;;;;;48.20;39.38;;;18.90;99.90;;;;;;5003851;28;20037;-59
2023/08/25 04:50:04;;;;;;;49.55;39.85;;;18.90;99.90;;;;;;5004414;28;20093;-64
2023/08/25 04:52:30;;;;;;;50.58;41.17;;;19.00;99.90;;;;;;5004352;28;20574;-62
2023/08/25 04:54:56;;;;;;;47.03;40.45;;;19.00;99.90;;;;;;5005230;28;20053;-62
2023/08/25 04:57:22;;;;;;;47.10;40.22;;;19.10;99.90;;;;;;5013678;28;20042;-69
2023/08/25 04:59:48;;;;;;;50.85;39.40;;;19.00;99.90;;;;;;5003625;28;20392;-64
2023/08/25 05:02:14;;;;;;;50.95;40.80;;;18.90;99.90;;;;;;5004240;28;20053;-65
2023/08/25 05:04:40;;;;;;;50.67;41.00;;;18.80;99.90;;;;;;5004666;28;20095;-67
2023/08/25 05:07:07;;;;;;;52.53;42.08;;;18.80;99.90;;;;;;5003975;28;20144;-60
2023/08/25 05:09:33;;;;;;;56.38;42.53;;;18.90;99.90;;;;;;5003928;28;20053;-63
2023/08/25 05:11:58;;;;;;;52.50;41.92;;;18.90;99.90;;;;;;5004797;28;20049;-60
2023/08/25 05:14:24;;;;;;;49.90;40.90;;;18.90;99.90;;;;;;5004115;28;20489;-68
2023/08/25 05:16:49;;;;;;;55.08;41.85;;;19.00;99.90;;;;;;5003417;28;20042;-66
2023/08/25 05:19:15;;;;;;;58.28;42.70;;;19.00;99.90;;;;;;5004080;28;20528;-65
2023/08/25 05:21:40;;;;;;;52.95;41.92;;;19.00;99.90;;;;;;5004513;28;20077;-66
2023/08/25 05:24:15;;;;;;;1391.30;999.90;;;19.10;99.90;;;;;;5003460;28;20112;-63
2023/08/25 05:26:41;;;;;;;52.40;42.35;;;19.10;99.90;;;;;;5017741;28;20049;-62
2023/08/25 05:29:06;;;;;;;54.00;42.92;;;19.10;99.90;;;;;;5004153;28;20269;-64
2023/08/25 05:31:32;;;;;;;55.13;43.08;;;19.10;99.90;;;;;;5001955;28;20385;-66
2023/08/25 05:33:57;;;;;;;55.33;44.03;;;19.10;99.90;;;;;;5009076;28;20038;-64
2023/08/25 05:36:23;;;;;;;53.92;43.08;;;19.10;99.90;;;;;;5005082;28;20101;-67
2023/08/25 05:38:49;;;;;;;55.55;44.08;;;19.10;99.90;;;;;;5004154;28;20061;-64
2023/08/25 05:41:14;;;;;;;57.15;43.08;;;19.10;99.90;;;;;;5003103;28;20038;-64
2023/08/25 05:43:40;;;;;;;55.03;43.97;;;19.00;99.90;;;;;;5004229;28;20078;-68
2023/08/25 05:46:06;;;;;;;54.47;43.22;;;19.10;99.90;;;;;;5002241;28;20056;-63
2023/08/25 05:48:31;;;;;;;1246.80;999.90;;;19.00;99.90;;;;;;5003452;28;20049;-65
2023/08/25 05:50:57;;;;;;;1309.07;999.90;;;19.10;99.90;;;;;;5004115;28;20038;-68
2023/08/25 05:53:22;;;;;;;1315.50;999.90;;;19.20;99.90;;;;;;5002795;28;20045;-62
2023/08/25 05:55:49;;;;;;;1339.10;999.90;;;19.20;99.90;;;;;;5006192;28;20599;-63
2023/08/25 05:58:15;;;;;;;1357.47;999.90;;;19.10;99.90;;;;;;5010547;28;20045;-60
2023/08/25 06:00:41;;;;;;;1163.85;977.30;;;19.20;99.90;;;;;;5003060;28;20056;-68
2023/08/25 06:03:08;;;;;;;1241.47;999.90;;;19.20;99.90;;;;;;5003601;28;20042;-68
2023/08/25 06:05:33;;;;;;;1267.88;999.90;;;19.20;99.90;;;;;;5003417;28;20049;-64
2023/08/25 06:08:00;;;;;;;1241.57;999.90;;;19.30;99.90;;;;;;5003618;28;20633;-69
2023/08/25 06:10:26;;;;;;;1023.65;917.97;;;19.30;99.90;;;;;;5003832;28;20050;-64
2023/08/25 06:12:52;;;;;;;1217.28;999.90;;;19.40;99.90;;;;;;5006968;28;20034;-64
2023/08/25 06:15:18;;;;;;;1077.03;953.08;;;19.40;99.90;;;;;;5006528;28;20107;-64
2023/08/25 06:17:43;;;;;;;1326.65;999.90;;;19.50;99.90;;;;;;5004752;28;20145;-65
2023/08/25 06:20:11;;;;;;;1264.20;999.90;;;19.50;99.90;;;;;;5007778;28;20048;-65
2023/08/25 06:22:38;;;;;;;1179.28;946.38;;;19.50;99.90;;;;;;5006835;28;20050;-61
2023/08/25 06:25:03;;;;;;;1363.15;999.90;;;19.50;99.90;;;;;;5022818;28;20037;-68
2023/08/25 06:27:29;;;;;;;1333.82;999.90;;;19.40;99.90;;;;;;5026936;28;20468;-62
2023/08/25 06:29:55;;;;;;;1302.15;999.90;;;19.50;99.90;;;;;;5026913;28;20042;-68
2023/08/25 06:32:20;;;;;;;1343.63;999.90;;;19.50;99.90;;;;;;5025465;28;20412;-66
2023/08/25 06:34:50;;;;;;;1342.20;999.90;;;19.50;99.90;;;;;;5026705;28;20512;-65
2023/08/25 06:37:16;;;;;;;1357.50;999.90;;;19.60;99.90;;;;;;5025785;28;20099;-67
2023/08/25 06:39:41;;;;;;;1270.00;970.55;;;19.70;99.90;;;;;;5026733;28;20030;-65
2023/08/25 06:42:07;;;;;;;1353.57;999.90;;;19.90;99.90;;;;;;5026569;28;20602;-66
2023/08/25 06:44:32;;;;;;;1367.97;999.90;;;20.00;99.90;;;;;;5026228;28;20049;-63
2023/08/25 06:46:58;;;;;;;1367.93;999.90;;;20.10;99.90;;;;;;5025788;28;20034;-67
2023/08/25 06:49:24;;;;;;;1365.60;929.97;;;20.20;99.90;;;;;;5024188;28;20100;-69
2023/08/25 06:51:49;;;;;;;1367.53;999.90;;;20.20;99.90;;;;;;5007663;28;20413;-65
2023/08/25 06:54:15;;;;;;;1373.70;999.90;;;20.20;99.90;;;;;;5006367;28;20250;-69
2023/08/25 06:56:41;;;;;;;1385.40;999.90;;;20.20;99.90;;;;;;5016106;28;19921;-63
2023/08/25 06:59:07;;;;;;;;;;;20.40;99.90;;;;;;5007075;28;19988;-64
2023/08/25 07:01:33;;;;;;;1367.85;999.90;;;20.40;99.90;;;;;;5005891;28;20049;-66
2023/08/25 07:03:59;;;;;;;1379.15;999.90;;;20.40;99.90;;;;;;5006354;28;20308;-58
2023/08/25 07:06:25;;;;;;;1388.82;944.97;;;20.40;99.90;;;;;;5003965;28;20326;-69
2023/08/25 07:08:50;;;;;;;1386.90;942.15;;;20.40;99.90;;;;;;5006028;28;20055;-58
2023/08/25 07:11:16;;;;;;;1374.25;999.90;;;20.40;99.90;;;;;;5005788;28;19922;-68
2023/08/25 07:13:41;;;;;;;;;;;20.50;99.90;;;;;;5006085;28;20332;-68
2023/08/25 07:16:07;;;;;;;;;;;20.50;99.90;;;;;;5002182;28;20522;-58
2023/08/25 07:18:32;;;;;;;;;;;20.50;99.90;;;;;;5005990;28;20068;-68
2023/08/25 07:21:01;;;;;;;;;;;20.40;99.90;;;;;;5005663;28;20056;-71
2023/08/25 07:23:27;;;;;;;;;;;20.40;99.90;;;;;;5004014;28;20597;-67
2023/08/25 07:25:52;;;;;;;;;;;20.50;99.90;;;;;;5020781;28;20019;-68
2023/08/25 07:28:18;;;;;;;;;;;20.40;99.90;;;;;;5011844;28;19921;-63
2023/08/25 07:30:43;;;;;;;;;;;20.50;99.90;;;;;;5023836;28;24082;-62
2023/08/25 07:33:09;;;;;;;;;;;20.50;99.90;;;;;;5023082;28;20125;-63
2023/08/25 07:35:35;;;;;;;;;;;20.60;99.90;;;;;;5023721;28;19925;-59
2023/08/25 07:38:01;;;;;;;;;;;20.70;99.90;;;;;;5020422;28;20277;-61
2023/08/25 07:40:26;;;;;;;;;;;20.60;99.90;;;;;;5018938;28;25102;-65
2023/08/25 07:42:52;;;;;;;;;;;20.80;99.90;;;;;;5023982;28;19921;-71
2023/08/25 07:45:18;;;;;;;;;;;20.80;99.90;;;;;;5022789;28;19921;-64
2023/08/25 07:47:43;;;;;;;279.48;157.40;;;21.00;99.90;;;;;;5023873;28;24078;-69
2023/08/25 07:50:09;;;;;;;57.72;42.83;;;21.10;99.90;;;;;;5014129;28;20498;-68
2023/08/25 07:52:35;;;;;;;55.40;41.55;;;21.30;99.90;;;;;;5005552;28;20092;-60
2023/08/25 07:55:00;;;;;;;56.22;38.65;;;21.50;99.90;;;;;;5003673;28;20049;-73
2023/08/25 07:57:27;;;;;;;55.15;40.15;;;21.90;99.90;;;;;;5014919;28;20350;-66
2023/08/25 07:59:53;;;;;;;57.17;40.42;;;22.20;99.90;;;;;;5005446;28;20054;-59
2023/08/25 08:02:19;;;;;;;59.20;38.40;;;22.10;99.90;;;;;;5004418;28;20034;-60
2023/08/25 08:04:44;;;;;;;55.55;40.40;;;22.10;99.90;;;;;;5008950;28;20077;-64
2023/08/25 08:07:10;;;;;;;52.40;39.53;;;22.00;99.90;;;;;;5023378;28;20053;-65
2023/08/25 08:09:36;;;;;;;54.35;39.20;;;22.00;99.90;;;;;;5013676;28;20370;-60
2023/08/25 08:12:02;;;;;;;55.30;39.50;;;21.90;99.90;;;;;;5023272;28;20429;-62
2023/08/25 08:14:28;;;;;;;53.30;39.13;;;21.90;99.90;;;;;;5021951;28;20467;-58
2023/08/25 08:16:54;;;;;;;54.47;39.47;;;21.90;99.90;;;;;;5019084;28;20052;-59
2023/08/25 08:19:19;;;;;;;51.25;35.65;;;21.90;99.90;;;;;;5023675;28;20057;-72
2023/08/25 08:21:45;;;;;;;55.83;38.38;;;21.90;99.90;;;;;;5021397;28;20437;-63
2023/08/25 08:24:10;;;;;;;54.58;38.13;;;21.80;99.90;;;;;;5022415;28;20041;-66
2023/08/25 08:26:36;;;;;;;52.78;37.28;;;21.80;99.90;;;;;;5024716;28;20473;-71
2023/08/25 08:29:02;;;;;;;57.25;37.90;;;21.90;99.90;;;;;;5024866;28;20140;-63
2023/08/25 08:31:29;;;;;;;50.03;35.67;;;21.90;99.90;;;;;;5024070;28;20482;-67
2023/08/25 08:33:54;;;;;;;50.92;37.13;;;22.00;99.90;;;;;;5023653;28;20055;-70
2023/08/25 08:36:20;;;;;;;56.00;37.55;;;22.10;99.90;;;;;;5023992;28;20303;-65
2023/08/25 08:38:46;;;;;;;61.53;37.00;;;22.10;99.90;;;;;;5024442;28;20053;-73
2023/08/25 08:41:15;;;;;;;50.58;33.17;;;22.20;99.90;;;;;;5023811;28;20057;-63
2023/08/25 08:43:43;;;;;;;52.92;36.95;;;22.30;99.90;;;;;;5024700;28;20069;-71
2023/08/25 08:46:11;;;;;;;54.03;36.83;;;22.30;99.90;;;;;;5022535;28;20385;-67
2023/08/25 08:48:37;;;;;;;52.35;36.20;;;22.30;99.90;;;;;;5023239;28;20136;-69
2023/08/25 08:51:04;;;;;;;48.60;35.72;;;22.30;99.90;;;;;;5025074;28;20407;-62
2023/08/25 08:53:31;;;;;;;55.30;37.17;;;22.20;99.90;;;;;;5019849;28;20109;-64
2023/08/25 08:55:59;;;;;;;53.90;35.90;;;22.20;99.90;;;;;;5019210;28;20664;-65
2023/08/25 08:58:24;;;;;;;50.28;36.03;;;22.20;99.90;;;;;;5005106;28;20566;-65
2023/08/25 09:00:52;;;;;;;54.30;36.72;;;22.20;99.90;;;;;;5013347;28;20304;-72
2023/08/25 09:03:21;;;;;;;53.42;35.85;;;22.10;99.90;;;;;;5005618;28;20057;-68
2023/08/25 09:05:47;;;;;;;55.20;36.70;;;22.10;99.90;;;;;;5004144;28;20381;-63
2023/08/25 09:08:14;;;;;;;53.63;37.13;;;22.10;99.90;;;;;;5004584;28;20489;-71
2023/08/25 09:10:39;;;;;;;52.90;35.65;;;22.00;99.90;;;;;;5004872;28;20620;-68
2023/08/25 09:13:05;;;;;;;49.90;35.45;;;21.90;99.90;;;;;;5003915;28;20073;-73
2023/08/25 09:15:32;;;;;;;45.83;32.33;;;21.90;99.90;;;;;;5002845;28;20498;-69
2023/08/25 09:18:09;;;;;;;46.30;35.30;;;21.90;99.90;;;;;;5004233;28;20049;-61
2023/08/25 09:20:38;;;;;;;51.03;36.30;;;21.90;99.90;;;;;;5003125;28;20124;-70
2023/08/25 09:23:05;;;;;;;52.70;35.67;;;21.90;99.90;;;;;;5015338;28;20045;-63
2023/08/25 09:25:32;;;;;;;51.28;36.35;;;21.90;99.90;;;;;;5024281;28;20128;-67
2023/08/25 09:28:02;;;;;;;48.33;35.13;;;21.90;99.90;;;;;;5023110;28;20378;-71
2023/08/25 09:30:42;;;;;;;50.75;35.53;;;22.00;99.90;;;;;;5022272;28;20045;-76
2023/08/25 09:33:15;;;;;;;48.55;33.67;;;22.00;99.90;;;;;;5023958;28;20077;-68
2023/08/25 09:35:42;;;;;;;51.60;35.03;;;22.00;99.90;;;;;;5002757;28;20543;-68
2023/08/25 09:38:20;;;;;;;54.22;36.65;;;21.90;99.90;;;;;;5014416;28;20089;-68
2023/08/25 09:40:46;;;;;;;50.38;34.60;;;21.90;99.90;;;;;;5023013;28;20407;-62
2023/08/25 09:43:12;;;;;;;51.15;35.35;;;21.90;99.90;;;;;;5024343;28;20084;-58
2023/08/25 09:45:39;;;;;;;48.13;34.97;;;21.80;99.90;;;;;;5019727;28;20725;-58
2023/08/25 09:48:10;;;;;;;48.47;34.75;;;21.80;99.90;;;;;;5024889;28;20077;-65
2023/08/25 09:50:38;;;;;;;45.50;33.05;;;21.80;99.90;;;;;;5027797;28;20045;-69
2023/08/25 09:53:05;;;;;;;50.95;34.75;;;21.80;99.90;;;;;;5027746;28;20049;-70
2023/08/25 09:55:34;;;;;;;48.05;34.85;;;21.90;99.90;;;;;;5021777;28;20056;-66
2023/08/25 09:57:59;;;;;;;48.53;34.08;;;21.80;99.90;;;;;;5015364;28;20104;-64
2023/08/25 10:00:26;;;;;;;53.72;35.15;;;21.80;99.90;;;;;;5007967;28;20038;-70
2023/08/25 10:02:53;;;;;;;48.92;36.58;;;21.80;99.90;;;;;;5007008;28;20038;-66
2023/08/25 10:05:20;;;;;;;45.00;35.08;;;21.80;99.90;;;;;;5007313;28;20034;-64
2023/08/25 10:07:47;;;;;;;45.38;33.65;;;21.70;99.90;;;;;;5006308;28;20046;-69
2023/08/25 10:10:13;;;;;;;48.40;33.92;;;21.70;99.90;;;;;;5007633;28;20054;-67
2023/08/25 10:12:41;;;;;;;45.97;34.17;;;21.70;99.90;;;;;;5007275;28;20128;-66
2023/08/25 10:15:09;;;;;;;44.72;33.80;;;21.60;99.90;;;;;;5007828;28;20046;-70
2023/08/25 10:17:36;;;;;;;52.65;35.58;;;21.60;99.90;;;;;;5006676;28;20050;-59
2023/08/25 10:20:05;;;;;;;48.65;36.47;;;21.60;99.90;;;;;;5007447;28;20042;-65
2023/08/25 10:22:34;;;;;;;50.00;36.33;;;21.50;99.90;;;;;;5005647;28;20132;-60
2023/08/25 10:25:03;;;;;;;47.28;36.65;;;21.70;99.90;;;;;;5024392;28;20045;-71
2023/08/25 10:27:29;;;;;;;48.85;35.55;;;21.90;99.90;;;;;;5026945;28;20116;-67
2023/08/25 10:29:56;;;;;;;46.03;35.33;;;22.20;99.90;;;;;;5026413;28;20045;-67
2023/08/25 10:32:22;;;;;;;38.83;30.00;;;22.70;99.90;;;;;;5026531;28;20064;-71
2023/08/25 10:34:52;;;;;;;42.20;30.75;;;23.00;99.90;;;;;;5025200;28;20029;-70
2023/08/25 10:37:25;;;;;;;39.88;29.83;;;22.90;99.90;;;;;;5026234;28;20049;-67
2023/08/25 10:40:02;;;;;;;37.53;26.02;;;22.80;99.90;;;;;;5026963;28;20037;-67
2023/08/25 10:42:30;;;;;;;38.53;26.23;;;22.70;99.90;;;;;;5025863;28;20635;-64
2023/08/25 10:45:01;;;;;;;36.97;27.88;;;22.70;99.90;;;;;;5026908;28;20506;-68
2023/08/25 10:47:27;;;;;;;35.40;26.38;;;22.50;99.90;;;;;;5019362;28;20103;-59
2023/08/25 10:50:00;;;;;;;36.50;26.95;;;22.50;99.90;;;;;;5019516;28;20049;-64
2023/08/25 10:52:25;;;;;;;42.17;30.77;;;22.50;99.90;;;;;;5025769;28;20072;-66
2023/08/25 10:54:53;;;;;;;41.25;31.60;;;22.50;99.90;;;;;;5025330;28;20046;-67
2023/08/25 10:57:25;;;;;;;38.08;30.67;;;22.40;99.90;;;;;;5014449;28;20057;-64
2023/08/25 10:59:54;;;;;;;41.40;31.27;;;22.30;99.90;;;;;;5024869;28;20088;-63
2023/08/25 11:02:37;;;;;;;40.20;31.48;;;22.20;99.90;;;;;;5025054;28;20488;-66
2023/08/25 11:05:28;;;;;;;39.42;30.27;;;22.10;99.90;;;;;;5005230;28;20503;-68
2023/08/25 11:07:55;;;;;;;37.80;30.88;;;21.90;99.90;;;;;;5013806;28;20141;-70
2023/08/25 11:10:27;;;;;;;37.97;29.30;;;21.90;99.90;;;;;;5015138;28;20121;-65
2023/08/25 11:12:53;;;;;;;41.58;31.17;;;21.90;99.90;;;;;;5013803;28;20056;-65
2023/08/25 11:15:21;;;;;;;38.15;29.95;;;21.90;99.90;;;;;;5014551;28;20125;-66
2023/08/25 11:17:48;;;;;;;40.55;30.70;;;21.80;99.90;;;;;;5012727;28;20449;-66
2023/08/25 11:20:16;;;;;;;40.33;30.05;;;21.90;99.90;;;;;;5011324;28;20038;-63
2023/08/25 11:22:55;;;;;;;37.67;29.75;;;21.80;99.90;;;;;;5011332;28;20063;-63
2023/08/25 11:25:21;;;;;;;39.50;30.38;;;21.80;99.90;;;;;;5016169;28;20104;-69
2023/08/25 11:27:53;;;;;;;40.72;30.13;;;21.80;99.90;;;;;;5012276;28;20042;-63
2023/08/25 11:30:20;;;;;;;40.67;30.33;;;21.60;99.90;;;;;;5015885;28;20048;-62
2023/08/25 11:32:49;;;;;;;36.92;29.92;;;21.60;99.90;;;;;;5021838;28;20060;-61
2023/08/25 11:35:16;;;;;;;38.35;30.27;;;21.60;99.90;;;;;;5013945;28;20046;-67
2023/08/25 11:37:46;;;;;;;39.70;30.70;;;21.50;99.90;;;;;;5011764;28;20149;-69
2023/08/25 11:40:18;;;;;;;39.72;31.25;;;21.50;99.90;;;;;;5010907;28;20127;-70
2023/08/25 11:42:44;;;;;;;37.80;31.85;;;21.40;99.90;;;;;;5015835;28;20503;-65
2023/08/25 11:45:10;;;;;;;39.15;31.95;;;21.50;99.90;;;;;;5014405;28;20418;-72
2023/08/25 11:47:37;;;;;;;40.70;31.50;;;21.60;99.90;;;;;;5011049;28;20042;-69
2023/08/25 11:50:04;;;;;;;41.05;30.65;;;21.60;99.90;;;;;;5005646;28;20042;-69
2023/08/25 11:52:32;;;;;;;39.75;31.75;;;21.70;99.90;;;;;;5005395;28;20042;-71
2023/08/25 11:54:58;;;;;;;37.70;30.98;;;21.80;99.90;;;;;;5004845;28;20118;-58
2023/08/25 11:57:36;;;;;;;39.33;30.80;;;21.90;99.90;;;;;;5017506;28;20088;-64
2023/08/25 12:00:07;;;;;;;38.03;29.95;;;21.90;99.90;;;;;;5005110;28;20552;-71
2023/08/25 12:02:34;;;;;;;37.30;30.10;;;22.00;99.90;;;;;;5002290;28;20051;-70
2023/08/25 12:05:00;;;;;;;33.78;28.15;;;22.10;99.90;;;;;;5004653;28;20129;-68
2023/08/25 12:07:28;;;;;;;34.95;28.08;;;22.20;99.90;;;;;;5004474;28;20596;-72
2023/08/25 12:09:55;;;;;;;33.53;28.70;;;22.00;99.90;;;;;;5004028;28;20153;-69
2023/08/25 12:12:22;;;;;;;36.15;28.60;;;22.00;99.90;;;;;;5004461;28;20080;-70
2023/08/25 12:14:52;;;;;;;36.88;28.45;;;21.90;99.90;;;;;;5003562;28;20527;-68
2023/08/25 12:17:28;;;;;;;33.92;28.73;;;21.90;99.90;;;;;;5003691;28;20541;-70
2023/08/25 12:19:55;;;;;;;32.95;26.55;;;21.90;99.90;;;;;;5005210;28;20392;-70
2023/08/25 12:22:23;;;;;;;32.15;26.48;;;21.90;99.90;;;;;;5004639;28;20056;-71
2023/08/25 12:24:49;;;;;;;35.50;27.75;;;21.90;99.90;;;;;;5007602;28;20060;-59
2023/08/25 12:27:15;;;;;;;35.88;28.08;;;22.00;99.90;;;;;;5024595;28;20120;-70
2023/08/25 12:29:41;;;;;;;36.78;28.17;;;22.00;99.90;;;;;;5018067;28;20073;-69
2023/08/25 12:32:10;;;;;;;34.22;26.88;;;22.00;99.90;;;;;;5002667;28;20077;-68